TimeEST,TemperatureF,Dew PointF,Humidity,Sea Level PressureIn,VisibilityMPH,Wind Direction,Wind SpeedMPH,Gust SpeedMPH,PrecipitationIn,Events,Conditions,WindDirDegrees,DateUTC
12:51 AM,57.9,48.9,72,30.31,10.0,NE,8.1,16.1,N/A,,Overcast,40,2011-11-06 04:51:00
1:51 AM,57.9,50.0,75,30.30,10.0,NE,9.2,17.3,N/A,,Overcast,40,2011-11-06 05:51:00
4:51 AM,57.0,50.0,77,30.32,10.0,NNE,9.2,19.6,N/A,,Overcast,30,2011-11-06 09:51:00
5:05 AM,57.2,50.0,77,30.32,10.0,NNE,8.1,21.9,N/A,,Overcast,30,2011-11-06 10:05:00
5:30 AM,57.2,50.0,77,30.33,10.0,Variable,6.9,17.3,N/A,,Overcast,0,2011-11-06 10:30:00
5:51 AM,57.9,50.0,75,30.34,10.0,NE,12.7,21.9,N/A,,Overcast,40,2011-11-06 10:51:00
6:51 AM,57.9,50.0,75,30.36,10.0,NNE,10.4,20.7,N/A,,Overcast,30,2011-11-06 11:51:00
7:51 AM,57.9,50.0,75,30.38,10.0,NE,9.2,23.0,N/A,,Overcast,40,2011-11-06 12:51:00
8:51 AM,59.0,51.1,75,30.39,10.0,NE,9.2,17.3,N/A,,Overcast,40,2011-11-06 13:51:00
9:51 AM,60.1,50.0,69,30.41,10.0,NE,11.5,20.7,N/A,,Overcast,40,2011-11-06 14:51:00
10:51 AM,60.1,51.1,72,30.42,10.0,NE,13.8,26.5,N/A,,Overcast,40,2011-11-06 15:51:00
11:51 AM,60.1,51.1,72,30.41,10.0,NNE,13.8,20.7,N/A,,Overcast,20,2011-11-06 16:51:00
12:51 PM,60.1,51.1,72,30.40,10.0,NNE,10.4,21.9,N/A,,Overcast,30,2011-11-06 17:51:00
1:51 PM,57.9,52.0,81,30.39,10.0,NNE,11.5,24.2,0.00,Rain,Light Rain,30,2011-11-06 18:51:00
2:51 PM,60.1,52.0,75,30.39,10.0,NNE,11.5,21.9,0.00,,Overcast,30,2011-11-06 19:51:00
3:51 PM,60.1,51.1,72,30.38,10.0,NNE,12.7,19.6,N/A,,Overcast,30,2011-11-06 20:51:00
4:51 PM,59.0,51.1,75,30.36,10.0,NE,10.4,19.6,N/A,,Mostly Cloudy,40,2011-11-06 21:51:00
5:51 PM,59.0,53.1,81,30.38,10.0,NE,6.9,16.1,N/A,,Overcast,40,2011-11-06 22:51:00
6:07 PM,57.2,53.6,88,30.38,10.0,Variable,5.8,-,N/A,,Overcast,0,2011-11-06 23:07:00
6:22 PM,57.2,51.8,82,30.38,10.0,Variable,5.8,-,N/A,,Overcast,0,2011-11-06 23:22:00
6:51 PM,57.9,52.0,81,30.38,10.0,Variable,4.6,-,N/A,,Overcast,0,2011-11-06 23:51:00
7:06 PM,57.2,51.8,82,30.38,10.0,NNE,6.9,-,N/A,,Overcast,30,2011-11-07 00:06:00
7:51 PM,57.9,53.1,84,30.37,10.0,NNE,9.2,-,N/A,,Overcast,30,2011-11-07 00:51:00
8:51 PM,59.0,54.0,83,30.37,10.0,NNE,6.9,-,0.00,,Overcast,30,2011-11-07 01:51:00
9:51 PM,57.9,55.0,90,30.37,10.0,NNE,5.8,-,0.00,,Overcast,30,2011-11-07 02:51:00
10:51 PM,57.0,54.0,89,30.36,10.0,NNE,5.8,-,0.00,,Scattered Clouds,20,2011-11-07 03:51:00